Christoph Krause

Scout - FC Augsburg
19 Aug 2027
Donnerstag
Verarbeitung

Persönlichkeit

Anpassungsfähigkeit (11) Ehrgeiz (9) Kontroverse (11) Loyalität (4) Druck (16) Professionalität (7) Fairness (8) Temperament (5)

Profil

Trainerstil Demokratisch
Lizenz Nationale A
Entschlossenheit 5
Menschenführung 8
Motivation 5
Disziplin 6
Arbeitszufriedenheit
90%
Ermüdung
0%
Rolle Scout
Gehalt 69.6K p/W
Vertrag 14.03.2028

Leistung

Verhalten Gut
Trainingseffektivität
36%
Spielerentwicklung
50%
Verletzungsprävention
40%
Taktische Umsetzung
40%

Letzte Ereignisse

Nahm an einer Scouting-Besprechung teil 7T her
Nahm an einer Scouting-Besprechung teil 14T her
Nahm an einer Scouting-Besprechung teil 21T her
Nahm an einer Scouting-Besprechung teil 28T her
Nahm an einer Scouting-Besprechung teil 35T her
Nahm an einer Scouting-Besprechung teil 42T her
Nahm an einer Scouting-Besprechung teil 49T her
Nahm an einer Scouting-Besprechung teil 56T her

Aktuell beobachtet

112
Spieler Verein Status Fähigkeit Vertrauen Beobachtet Zuletzt beobachtet Letzte Stimme
Jobe Bellingham Köln Aktiv 138 / 147 40% 5 30.05.2027 -
Izan Merino Málaga Aktiv 121 / 119 40% 4 30.05.2027 -
Christ Inao Oulaï Fiorentina Aktiv 132 / 130 40% 3 30.05.2027 -
Afonso Assis Moreirense Aktiv 111 / 120 40% 3 29.05.2027 -
Yussif Saidu Zaragoza Aktiv 122 / 129 40% 2 29.05.2027 -
José Pachuca Puebla Aktiv 106 / 110 40% 4 29.05.2027 -
Juan Giménez Celta Aktiv 116 / 118 40% 2 26.05.2027 -
Ibrahim Maza Bayer Leverkusen Aktiv 151 / 139 40% 4 26.05.2027 -
Percy Jali Free State Stars Aktiv 88 / 104 40% 6 24.05.2027 -
Daniel Vernattus Metalist Aktiv 90 / 92 40% 1 24.05.2027 -
Arjan Malić Sturm Graz Aktiv 123 / 115 40% 4 22.05.2027 -
Samuele di Benedetto Bari Aktiv 114 / 125 40% 3 22.05.2027 -
Yusi Alavés Aktiv 129 / 137 40% 7 18.05.2027 -
Davide Bartesaghi AC Milan Aktiv 132 / 142 40% 3 17.05.2027 -
João Simões Sporting CP Aktiv 129 / 146 40% 4 17.05.2027 -
Warren Zaïre-Emery Paris Saint-Germain Aktiv 151 / 151 40% 3 17.05.2027 -
Marc Bernal Real Sociedad Aktiv 145 / 142 40% 3 16.05.2027 -
Gonçalo Oliveira Benfica Aktiv 106 / 108 40% 1 16.05.2027 -
Kevin Vazquez Cruz Azul Aktiv 139 / 153 40% 6 15.05.2027 -
Toni Tamarit Alverca Aktiv 116 / 112 40% 2 15.05.2027 -
Martim Cunha Porto Aktiv 103 / 108 40% 2 11.05.2027 -
Joel McGregor Swindon Town Aktiv 95 / 100 40% 1 11.05.2027 -
Kees Smit AZ Aktiv 140 / 151 40% 3 09.05.2027 -
Matías Gómez Granada Aktiv 111 / 118 40% 2 09.05.2027 -
Jan Bürger Gillingham Aktiv 111 / 122 40% 3 02.05.2027 -
Riley Owen Trento Aktiv 104 / 104 40% 2 02.05.2027 -
Givairo Read Feyenoord Aktiv 140 / 152 40% 3 01.05.2027 -
Daniel Costa Sporting CP Aktiv 91 / 101 40% 1 28.04.2027 -
Christos Mouzakitis Hull City Aktiv 133 / 128 40% 2 27.04.2027 -
Jaydee Canvot Crystal Palace Aktiv 138 / 144 40% 1 27.04.2027 -
Josh King Chelsea Aktiv 140 / 152 40% 3 26.04.2027 -
Zane Albarus Cambridge United Aktiv 98 / 96 40% 2 23.04.2027 -
Cheveyo Tsawa Club Brugge Aktiv 113 / 136 40% 2 07.04.2027 -
Keagan Tau Ajax Cape Town Aktiv 86 / 87 40% 1 07.04.2027 -
Lucas Høgsberg RC Strasbourg Aktiv 134 / 149 40% 3 04.04.2027 -
Caleb Yirenkyi Coventry City Aktiv 133 / 132 40% 2 31.03.2027 -
Tiago Freitas Benfica Aktiv 112 / 119 40% 1 31.03.2027 -
Jofre Torrents Ajax Aktiv 124 / 127 40% 3 26.03.2027 -
David Ozoh Derby County Aktiv 118 / 121 40% 1 24.03.2027 -
Bernardo Lima Porto Aktiv 96 / 104 40% 1 18.03.2027 -
Ronwen Phiri Platinum Stars Aktiv 100 / 113 40% 1 18.03.2027 -
Ernie Weaver AFC Wimbledon Aktiv 107 / 120 40% 3 15.03.2027 -
Jonas Harder Basel Aktiv 114 / 116 40% 1 15.03.2027 -
Salvador Blopá Casa Pia Aktiv 110 / 114 40% 1 15.03.2027 -
Dylan Lawlor Cardiff City Aktiv 117 / 130 40% 1 09.03.2027 -
James Dornelly Peterborough United Aktiv 104 / 102 40% 1 07.03.2027 -
Matvey Kislyak CSKA Moscow Aktiv 134 / 149 40% 3 02.03.2027 -
Vasilije Novičić IMT Aktiv 98 / 100 40% 1 23.02.2027 -
Louis Leroux FC Nantes Aktiv 129 / 121 40% 1 23.02.2027 -
Pape Diong Westerlo Aktiv 113 / 125 40% 1 22.02.2027 -
Finn Jeltsch VfB Stuttgart Aktiv 131 / 149 40% 1 20.02.2027 -
Jack Hinshelwood Brighton Aktiv 145 / 139 40% 1 19.02.2027 -
Noah Nartey Olympique Lyonnais Aktiv 132 / 143 40% 1 03.02.2027 -
Nicolás Fernández Mercau Shakhtar Aktiv 132 / 138 40% 2 31.12.2026 -
Ousmane Diomande Nottingham Forest Aktiv 149 / 145 40% 4 31.12.2026 -
José Ángel Carmona Sevilla Aktiv 151 / 151 40% 2 30.12.2026 -
Víctor Gómez Braga Aktiv 141 / 143 40% 1 30.12.2026 -
Renato Veiga Villarreal Aktiv 147 / 144 40% 1 30.12.2026 -
Mika Mármol Feyenoord Aktiv 141 / 132 40% 2 29.12.2026 -
Christian Krasnodar Aktiv 140 / 134 40% 2 29.12.2026 -
André Wolverhampton Aktiv 141 / 154 40% 2 27.12.2026 -
Hector Ramirez Newcastle United Aktiv 152 / 162 40% 1 27.12.2026 -
Nicolò Rovella Lazio Aktiv 155 / 149 40% 1 27.12.2026 -
Iván Martín Racing Santander Aktiv 149 / 140 40% 3 26.12.2026 -
Ilaix Moriba Celta Aktiv 153 / 149 40% 1 26.12.2026 -
Adam Wharton Crystal Palace Aktiv 154 / 150 40% 4 25.12.2026 -
Nico González Newcastle United Aktiv 165 / 155 40% 2 25.12.2026 -
Boubacar Kamara Aston Villa Aktiv 167 / 171 40% 2 25.12.2026 -
Eric Martel Mainz 05 Aktiv 143 / 149 40% 2 24.12.2026 -
Curtis Jones Inter Aktiv 153 / 150 40% 2 24.12.2026 -
Rico Lewis Manchester City Aktiv 144 / 148 40% 2 22.12.2026 -
Nathan Collins Brentford Aktiv 146 / 157 40% 1 22.12.2026 -
Pol Lozano Espanyol Aktiv 140 / 138 40% 1 22.12.2026 -
Fran García Betis Aktiv 149 / 143 40% 2 20.12.2026 -
Quinten Timber Crystal Palace Aktiv 153 / 151 40% 3 20.12.2026 -
Sven Botman Newcastle United Aktiv 156 / 146 40% 1 19.12.2026 -
Nnamdi Collins Eintracht Frankfurt Aktiv 136 / 137 40% 1 19.12.2026 -
Tyrell Malacia Monaco Aktiv 134 / 138 40% 3 16.12.2026 -
Angelo Stiller VfB Stuttgart Aktiv 150 / 157 40% 2 16.12.2026 -
Bart van Rooij Twente Aktiv 133 / 124 40% 1 16.12.2026 -
Tariq Lamptey Queens Park Rangers Aktiv 132 / 132 40% 1 13.12.2026 -
Tyler Adams Bournemouth Aktiv 153 / 140 40% 1 13.12.2026 -
Aaron Hickey Brentford Aktiv 140 / 142 40% 2 12.12.2026 -
Philipp Treu SC Freiburg Aktiv 132 / 125 40% 1 12.12.2026 -
Pape Guèye Villarreal Aktiv 150 / 144 40% 2 11.12.2026 -
Manu Koné AS Roma Aktiv 165 / 163 40% 1 11.12.2026 -
Loïc Badé Bayer Leverkusen Aktiv 160 / 162 40% 1 10.12.2026 -
Edmond Tapsoba Bayer Leverkusen Aktiv 152 / 141 40% 2 07.12.2026 -
Aitor Paredes Athletic Bilbao Aktiv 150 / 137 40% 1 07.12.2026 -
Adrien Truffert Bournemouth Aktiv 146 / 157 40% 2 05.12.2026 -
Nicolas Seiwald RB Leipzig Aktiv 146 / 153 40% 1 05.12.2026 -
Tino Livramento Newcastle United Aktiv 159 / 150 40% 1 03.12.2026 -
Michael Kayode Brentford Aktiv 149 / 158 40% 1 02.12.2026 -
Kike Salas Sevilla Aktiv 137 / 152 40% 1 02.12.2026 -
Ryan Sessegnon Fulham Aktiv 150 / 137 40% 1 01.12.2026 -
Arnau Martínez Valencia Aktiv 144 / 149 40% 1 29.11.2026 -
Florentino Luís Ipswich Town Aktiv 142 / 146 40% 1 29.11.2026 -
Vanderson Monaco Aktiv 141 / 153 40% 1 28.11.2026 -
Josha Vagnoman VfB Stuttgart Aktiv 139 / 143 40% 1 28.11.2026 -
Dani Vivian Athletic Bilbao Aktiv 154 / 145 40% 1 26.11.2026 -
Noah Sadiki Sunderland Aktiv 146 / 153 40% 1 26.11.2026 -
Gavi Barcelona Aktiv 159 / 166 40% 1 26.11.2026 -
Willian Pacho Paris Saint-Germain Aktiv 164 / 152 40% 1 21.11.2026 -
Kevin Lomónaco Elche Aktiv 130 / 125 40% 1 21.11.2026 -
Elliot Anderson Manchester City Aktiv 149 / 143 40% 1 20.11.2026 -
Javi Rodríguez Celta Aktiv 148 / 150 40% 1 20.11.2026 -
Pedro Porro Tottenham Aktiv 150 / 143 40% 1 08.11.2026 -
Diogo Leite Union Berlin Aktiv 139 / 127 40% 1 07.09.2026 -
James Cardona La Equidad Aktiv 138 / 156 40% 1 07.09.2026 -
Marvin Akahomen Basel Aktiv 93 / 100 40% 1 01.08.2026 -
Jorrel Hato Chelsea Aktiv 141 / 148 40% 1 01.08.2026 -
Fodé Sylla Sion Aktiv 112 / 113 40% 1 01.08.2026 -